METAR Data
IDs: Format: Raw Decoded Include TAF

Data at: 1103 UTC 28 Sep 2021

KOLZ 281055Z AUTO 10007KT 10SM CLR 13/09 A2997 RMK A01